Time;durP1;ratioP1;P1;durP2;ratioP2;P2;SDS_P1;SDS_P2;PMS_P1;PMS_P2;Temp;Humidity;BMP_temperature;BMP_pressure;BME280_temperature;BME280_humidity;BME280_pressure;Samples;Min_cycle;Max_cycle;Signal;HPM_P1;HPM_P2
2021/09/22 00:01:35;;;;;;;18.75;13.65;;;;;;;10.57;100.00;102942.34;10499083;28;20045;-58
2021/09/22 00:06:37;;;;;;;25.98;17.55;;;;;;;10.57;100.00;102936.22;10499487;28;20170;-58
2021/09/22 00:11:40;;;;;;;23.92;18.33;;;;;;;10.49;100.00;102930.31;10498773;28;20059;-58
2021/09/22 00:16:42;;;;;;;27.52;19.25;;;;;;;10.36;100.00;102929.75;10498892;28;20048;-58
2021/09/22 00:21:44;;;;;;;31.60;21.33;;;;;;;10.36;100.00;102927.97;10498364;28;20045;-57
2021/09/22 00:26:47;;;;;;;27.08;20.70;;;;;;;10.36;100.00;102921.88;10498503;28;20484;-58
2021/09/22 00:31:49;;;;;;;33.65;23.45;;;;;;;10.25;100.00;102923.84;10497439;28;20131;-57
2021/09/22 00:36:51;;;;;;;34.78;22.80;;;;;;;10.35;100.00;102921.00;10498308;28;20052;-56
2021/09/22 00:41:54;;;;;;;33.15;23.15;;;;;;;10.28;100.00;102921.16;10498037;28;20412;-57
2021/09/22 00:46:56;;;;;;;40.45;26.30;;;;;;;10.32;100.00;102922.84;10498017;28;20044;-57
2021/09/22 00:51:59;;;;;;;34.35;23.85;;;;;;;10.29;100.00;102917.63;10497108;28;20485;-58
2021/09/22 00:57:01;;;;;;;42.65;27.35;;;;;;;10.35;100.00;102921.00;10497777;28;20515;-57
2021/09/22 01:02:05;;;;;;;35.65;26.40;;;;;;;10.22;100.00;102909.03;10500781;28;20048;-58
2021/09/22 01:07:09;;;;;;;40.08;27.95;;;;;;;10.21;100.00;102916.03;10506204;28;20084;-57
2021/09/22 01:12:11;;;;;;;43.03;27.90;;;;;;;10.27;100.00;102911.56;10505838;28;20052;-57
2021/09/22 01:17:19;;;;;;;34.85;24.67;;;;;;;10.36;100.00;102906.19;10505924;28;20059;-57
2021/09/22 01:22:22;;;;;;;47.08;30.70;;;;;;;10.12;100.00;102897.06;10506115;28;20127;-56
2021/09/22 01:27:25;;;;;;;50.63;32.97;;;;;;;10.03;100.00;102896.34;10505541;28;20060;-58
2021/09/22 01:32:27;;;;;;;53.50;33.70;;;;;;;10.25;100.00;102893.28;10505142;28;20516;-57
2021/09/22 01:37:32;;;;;;;52.75;33.25;;;;;;;10.27;100.00;102893.25;10504851;28;20385;-58
2021/09/22 01:42:34;;;;;;;57.67;33.92;;;;;;;10.35;100.00;102891.34;10505003;28;20051;-57
2021/09/22 01:47:37;;;;;;;59.60;36.15;;;;;;;10.24;100.00;102886.34;10504500;28;20055;-56
2021/09/22 01:52:40;;;;;;;56.38;35.55;;;;;;;10.29;100.00;102884.47;10504663;28;20056;-57
2021/09/22 01:57:42;;;;;;;63.90;37.42;;;;;;;10.09;100.00;102879.69;10504212;28;20048;-58
2021/09/22 02:02:45;;;;;;;64.03;36.33;;;;;;;10.26;100.00;102886.31;10504160;28;20045;-57
2021/09/22 02:07:48;;;;;;;77.10;42.05;;;;;;;10.02;100.00;102884.19;10503576;28;20511;-57
2021/09/22 02:12:50;;;;;;;87.82;46.40;;;;;;;10.19;100.00;102880.34;10502773;28;20041;-58
2021/09/22 02:17:53;;;;;;;79.18;43.03;;;;;;;10.32;100.00;102876.59;10503737;28;20060;-59
2021/09/22 02:22:55;;;;;;;67.95;39.35;;;;;;;10.65;100.00;102871.44;10502167;28;20377;-57
2021/09/22 02:27:58;;;;;;;74.20;44.50;;;;;;;10.75;100.00;102872.91;10503080;28;20060;-57
2021/09/22 02:33:00;;;;;;;51.92;33.83;;;;;;;10.78;100.00;102869.38;10502845;28;20481;-58
2021/09/22 02:38:03;;;;;;;74.47;40.92;;;;;;;10.62;100.00;102866.25;10503292;28;20051;-56
2021/09/22 02:43:05;;;;;;;55.55;35.58;;;;;;;10.63;100.00;102868.00;10502790;28;20045;-58
2021/09/22 02:48:10;;;;;;;75.47;43.90;;;;;;;10.35;100.00;102870.41;10502195;28;20132;-56
2021/09/22 02:53:13;;;;;;;56.10;35.35;;;;;;;10.54;100.00;102863.84;10502397;28;20051;-57
2021/09/22 02:58:15;;;;;;;46.47;30.13;;;;;;;10.52;100.00;102862.13;10501826;28;20044;-58
2021/09/22 03:03:18;;;;;;;63.67;37.35;;;;;;;10.52;100.00;102857.78;10502037;28;20047;-58
2021/09/22 03:08:20;;;;;;;60.85;37.45;;;;;;;10.28;100.00;102851.31;10501236;28;20123;-57
2021/09/22 03:13:23;;;;;;;60.58;35.78;;;;;;;10.29;100.00;102844.31;10501610;28;20049;-58
2021/09/22 03:18:25;;;;;;;60.40;37.20;;;;;;;10.07;100.00;102850.06;10500542;28;20123;-57
2021/09/22 03:23:27;;;;;;;52.35;33.08;;;;;;;10.25;100.00;102838.28;10500293;28;20485;-59
2021/09/22 03:28:30;;;;;;;81.93;42.28;;;;;;;10.21;100.00;102842.75;10500680;28;20052;-57
2021/09/22 03:33:32;;;;;;;72.03;42.58;;;;;;;9.98;100.00;102842.41;10500502;28;20048;-57
2021/09/22 03:38:35;;;;;;;68.57;41.35;;;;;;;10.07;100.00;102849.19;10500554;28;20055;-57
2021/09/22 03:43:37;;;;;;;49.20;34.95;;;;;;;10.00;100.00;102848.47;10500814;28;20051;-58
2021/09/22 03:48:39;;;;;;;61.38;37.42;;;;;;;9.79;100.00;102842.81;10498373;28;20041;-57
2021/09/22 03:53:42;;;;;;;65.97;40.85;;;;;;;9.93;100.00;102839.88;10500176;28;20048;-58
2021/09/22 03:58:44;;;;;;;72.47;41.22;;;;;;;9.76;100.00;102847.25;10499764;28;20400;-58
2021/09/22 04:03:47;;;;;;;75.15;42.63;;;;;;;9.85;100.00;102847.94;10499198;28;20511;-58
2021/09/22 04:08:50;;;;;;;64.75;40.42;;;;;;;9.69;100.00;102843.06;10499540;28;20049;-57
2021/09/22 04:13:52;;;;;;;62.63;39.28;;;;;;;9.61;100.00;102836.22;10497626;28;20512;-58
2021/09/22 04:18:54;;;;;;;64.70;40.38;;;;;;;9.57;100.00;102836.31;10499186;28;20044;-56
2021/09/22 04:23:57;;;;;;;62.63;37.63;;;;;;;9.62;100.00;102829.25;10498698;28;20040;-57
2021/09/22 04:28:59;;;;;;;65.80;39.35;;;;;;;9.54;100.00;102829.38;10498405;28;20056;-57
2021/09/22 04:34:02;;;;;;;70.75;41.17;;;;;;;9.49;100.00;102826.84;10496948;28;20052;-57
2021/09/22 04:39:06;;;;;;;66.30;39.50;;;;;;;9.46;100.00;102840.03;10498136;28;20049;-56
2021/09/22 04:44:08;;;;;;;51.67;35.00;;;;;;;9.45;100.00;102843.50;10498591;28;20053;-57
2021/09/22 04:49:11;;;;;;;57.72;36.50;;;;;;;9.49;100.00;102841.69;10498414;28;20048;-57
2021/09/22 04:54:13;;;;;;;52.78;34.22;;;;;;;9.40;100.00;102850.59;10498334;28;20044;-57
2021/09/22 04:59:15;;;;;;;55.17;35.20;;;;;;;9.28;100.00;102863.91;10497594;28;20048;-55
2021/09/22 05:04:18;;;;;;;54.53;35.17;;;;;;;9.22;100.00;102870.09;10498229;28;20048;-57
2021/09/22 05:09:21;;;;;;;58.85;37.13;;;;;;;9.24;100.00;102888.38;10496654;28;20481;-59
2021/09/22 05:14:23;;;;;;;52.55;33.15;;;;;;;9.17;100.00;102886.75;10498164;28;20055;-58
2021/09/22 05:19:26;;;;;;;54.67;34.42;;;;;;;9.02;100.00;102888.75;10497254;28;20048;-56
2021/09/22 05:24:29;;;;;;;55.92;35.72;;;;;;;8.97;100.00;102890.56;10497579;28;20048;-58
2021/09/22 05:29:31;;;;;;;60.28;36.97;;;;;;;9.19;100.00;102884.97;10497439;28;20060;-57
2021/09/22 05:34:34;;;;;;;38.28;28.60;;;;;;;9.15;100.00;102889.41;10497178;28;20071;-58
2021/09/22 05:39:36;;;;;;;44.70;33.60;;;;;;;9.01;100.00;102900.09;10497468;28;20049;-57
2021/09/22 05:44:38;;;;;;;43.25;29.42;;;;;;;9.25;100.00;102887.47;10497267;28;20045;-59
2021/09/22 05:49:41;;;;;;;48.83;33.35;;;;;;;8.95;100.00;102892.34;10503644;28;20067;-57
2021/09/22 05:54:43;;;;;;;45.35;30.73;;;;;;;9.23;100.00;102894.47;10504632;28;20044;-57
2021/09/22 05:59:45;;;;;;;59.78;38.13;;;;;;;9.17;100.00;102892.00;10504143;28;20054;-56
2021/09/22 06:04:48;;;;;;;52.72;34.03;;;;;;;9.39;100.00;102882.00;10504297;28;20045;-57
2021/09/22 06:09:51;;;;;;;52.35;34.78;;;;;;;9.42;100.00;102897.63;10504176;28;20503;-58
2021/09/22 06:14:53;;;;;;;55.00;35.45;;;;;;;9.58;100.00;102899.06;10503694;28;20055;-57
2021/09/22 06:19:56;;;;;;;62.30;40.42;;;;;;;9.65;100.00;102891.97;10503282;28;20055;-58
2021/09/22 06:24:58;;;;;;;59.65;38.47;;;;;;;9.50;100.00;102898.34;10504301;28;20080;-57
2021/09/22 06:30:01;;;;;;;43.88;33.10;;;;;;;9.81;100.00;102903.81;10503275;28;20417;-58
2021/09/22 06:35:05;;;;;;;65.68;39.97;;;;;;;9.88;100.00;102901.94;10502508;28;20508;-57
2021/09/22 06:40:08;;;;;;;49.22;33.22;;;;;;;10.11;100.00;102908.44;10502368;28;20056;-58
2021/09/22 06:45:12;;;;;;;42.35;30.08;;;;;;;10.48;100.00;102918.13;10502579;28;20047;-58
2021/09/22 06:50:14;;;;;;;47.38;32.88;;;;;;;10.47;100.00;102913.78;10500857;28;20045;-57
2021/09/22 06:55:17;;;;;;;51.47;34.78;;;;;;;10.54;100.00;102913.59;10502055;28;20044;-58
2021/09/22 07:00:19;;;;;;;37.47;28.15;;;;;;;11.03;100.00;102923.75;10500760;28;20507;-58
2021/09/22 07:05:22;;;;;;;39.30;30.13;;;;;;;10.78;100.00;102920.00;10502033;28;20055;-58
2021/09/22 07:10:24;;;;;;;41.40;28.92;;;;;;;11.04;100.00;102902.75;10501443;28;20055;-58
2021/09/22 07:15:26;;;;;;;39.25;29.95;;;;;;;11.41;100.00;102911.41;10501779;28;20052;-57
2021/09/22 07:20:29;;;;;;;42.55;30.77;;;;;;;11.69;100.00;102914.16;10501129;28;20045;-58
2021/09/22 07:25:31;;;;;;;45.85;31.70;;;;;;;11.74;100.00;102927.16;10500739;28;20049;-58
2021/09/22 07:30:34;;;;;;;50.78;35.95;;;;;;;12.21;100.00;102914.41;10501252;28;20126;-59
2021/09/22 07:35:36;;;;;;;45.97;32.67;;;;;;;12.85;100.00;102922.00;10500370;28;20048;-57
2021/09/22 07:40:39;;;;;;;34.17;27.38;;;;;;;13.39;100.00;102917.56;10500330;28;20077;-58
2021/09/22 07:45:41;;;;;;;42.05;28.70;;;;;;;13.50;100.00;102922.44;10498788;28;20052;-58
2021/09/22 07:50:44;;;;;;;36.03;28.27;;;;;;;14.29;97.52;102915.97;10499547;28;20044;-58
2021/09/22 07:55:46;;;;;;;35.22;24.20;;;;;;;14.72;92.19;102923.09;10500182;28;20051;-58
2021/09/22 08:00:48;;;;;;;33.83;22.48;;;;;;;14.77;85.49;102906.16;10499366;28;20048;-57
2021/09/22 08:05:51;;;;;;;24.40;19.05;;;;;;;14.90;84.96;102908.28;10499342;28;20405;-57
2021/09/22 08:10:54;;;;;;;29.38;19.80;;;;;;;15.40;80.03;102905.25;10497528;28;20055;-57
2021/09/22 08:15:56;;;;;;;22.83;17.73;;;;;;;15.43;76.63;102899.81;10499315;28;20052;-58
2021/09/22 08:20:58;;;;;;;24.02;17.30;;;;;;;16.32;76.29;102890.44;10498787;28;20052;-58
2021/09/22 08:26:01;;;;;;;20.30;15.98;;;;;;;16.90;75.26;102891.13;10498713;28;20063;-58
2021/09/22 08:31:04;;;;;;;21.05;14.25;;;;;;;16.78;73.97;102889.94;10498987;28;20053;-57
2021/09/22 08:36:08;;;;;;;18.38;14.05;;;;;;;16.81;73.58;102895.09;10498361;28;20575;-58
2021/09/22 08:41:10;;;;;;;26.88;15.43;;;;;;;16.86;72.95;102893.09;10498454;28;20052;-57
2021/09/22 08:46:15;;;;;;;18.65;12.93;;;;;;;16.75;71.44;102889.25;10498241;28;20040;-58
2021/09/22 08:51:17;;;;;;;18.13;13.50;;;;;;;17.81;68.11;102889.84;10479948;28;20049;-59
2021/09/22 08:56:20;;;;;;;15.75;13.63;;;;;;;17.88;66.21;102889.53;10498474;28;20052;-57
2021/09/22 09:01:24;;;;;;;16.38;13.27;;;;;;;19.45;64.56;102888.34;10497970;28;20053;-58
2021/09/22 09:06:34;;;;;;;17.80;12.77;;;;;;;19.53;60.60;102880.75;10498475;28;20040;-58
2021/09/22 09:11:41;;;;;;;16.35;12.35;;;;;;;18.44;61.20;102874.00;10497471;28;20498;-57
2021/09/22 09:16:48;;;;;;;17.02;13.63;;;;;;;18.89;61.63;102867.81;10497747;28;20480;-57
2021/09/22 09:22:09;;;;;;;15.32;12.13;;;;;;;19.33;59.92;102874.00;10498834;28;20488;-58
2021/09/22 09:27:35;;;;;;;20.48;12.88;;;;;;;19.35;61.47;102874.81;10505672;28;20040;-58
2021/09/22 09:32:38;;;;;;;14.45;10.55;;;;;;;19.83;59.19;102862.03;10499509;28;20048;-58
2021/09/22 09:37:51;;;;;;;13.57;10.82;;;;;;;21.13;53.87;102861.41;10505499;28;20045;-58
2021/09/22 09:42:56;;;;;;;15.52;11.60;;;;;;;21.23;56.78;102867.84;10505470;28;20052;-58
2021/09/22 09:48:03;;;;;;;15.57;11.15;;;;;;;21.50;53.51;102856.19;10504961;28;20435;-57
2021/09/22 09:53:07;;;;;;;14.60;9.90;;;;;;;22.44;53.72;102852.88;10504632;28;20045;-59
2021/09/22 09:58:10;;;;;;;17.30;11.65;;;;;;;22.65;50.86;102854.00;10504089;28;20484;-59
2021/09/22 10:03:21;;;;;;;15.43;11.88;;;;;;;22.98;50.29;102842.50;10504239;28;20056;-58
2021/09/22 10:08:26;;;;;;;14.60;12.75;;;;;;;22.56;51.63;102844.88;10503924;28;20045;-58
2021/09/22 10:13:28;;;;;;;16.50;12.20;;;;;;;24.50;47.99;102836.53;10503973;28;20047;-58
2021/09/22 10:18:31;;;;;;;20.48;13.27;;;;;;;25.11;45.79;102836.59;10503143;28;20048;-59
2021/09/22 10:23:34;;;;;;;13.00;11.10;;;;;;;25.11;45.11;102823.19;10502734;28;20519;-58
2021/09/22 10:28:41;;;;;;;14.95;12.02;;;;;;;24.47;46.24;102817.03;10503508;28;20071;-58
2021/09/22 10:33:45;;;;;;;14.82;12.35;;;;;;;23.37;45.71;102819.00;10501656;28;20044;-58
2021/09/22 10:38:49;;;;;;;14.77;11.68;;;;;;;25.54;43.61;102802.50;10502614;28;20059;-58
2021/09/22 10:43:52;;;;;;;15.60;11.73;;;;;;;25.04;43.56;102812.16;10503078;28;20051;-58
2021/09/22 10:48:56;;;;;;;13.30;11.48;;;;;;;23.48;47.01;102815.44;10502081;28;20412;-57
2021/09/22 10:54:19;;;;;;;17.65;10.45;;;;;;;25.69;43.02;102806.47;10502317;28;20060;-58
2021/09/22 10:59:29;;;;;;;11.32;10.02;;;;;;;25.38;43.93;102798.47;10502094;28;20052;-58
2021/09/22 11:05:00;;;;;;;15.70;11.07;;;;;;;24.77;43.19;102801.19;10502367;28;20051;-59
2021/09/22 11:10:46;;;;;;;11.68;9.73;;;;;;;26.82;38.63;102791.53;10501539;28;20067;-58
2021/09/22 11:15:52;;;;;;;12.30;10.18;;;;;;;25.26;44.03;102782.63;10501187;28;20102;-59
2021/09/22 11:20:57;;;;;;;13.48;10.27;;;;;;;27.21;41.10;102777.91;10501699;28;20076;-57
2021/09/22 11:26:10;;;;;;;11.93;9.23;;;;;;;27.20;39.07;102775.34;10501432;28;20041;-58
2021/09/22 11:31:13;;;;;;;13.40;9.18;;;;;;;26.46;39.37;102766.31;10500374;28;20496;-58
2021/09/22 11:36:15;;;;;;;22.33;12.35;;;;;;;24.94;45.14;102762.22;10501517;28;20053;-58
2021/09/22 11:41:19;;;;;;;14.13;10.88;;;;;;;25.25;42.91;102764.84;10500129;28;20400;-58
2021/09/22 11:46:22;;;;;;;14.05;8.93;;;;;;;26.70;42.46;102752.41;10499520;28;20404;-59
2021/09/22 11:51:24;;;;;;;11.20;9.88;;;;;;;26.83;38.28;102760.13;10499572;28;20055;-58
2021/09/22 11:56:27;;;;;;;15.50;10.35;;;;;;;23.16;43.01;102747.59;10499986;28;20044;-59
2021/09/22 12:01:29;;;;;;;12.85;7.45;;;;;;;26.06;40.53;102740.56;10499306;28;20056;-59
2021/09/22 12:06:32;;;;;;;9.40;7.63;;;;;;;24.38;41.82;102729.50;10499319;28;20449;-58
2021/09/22 12:11:35;;;;;;;10.75;5.90;;;;;;;25.35;46.41;102730.88;10498850;28;20044;-58
2021/09/22 12:16:38;;;;;;;7.70;6.40;;;;;;;26.83;42.18;102722.50;10499062;28;20052;-58
2021/09/22 12:21:42;;;;;;;10.13;7.63;;;;;;;26.03;37.96;102712.16;10499030;28;20049;-59
2021/09/22 12:26:54;;;;;;;12.02;6.53;;;;;;;26.51;38.11;102711.19;10497437;28;20048;-58
2021/09/22 12:32:06;;;;;;;11.00;6.95;;;;;;;27.37;37.73;102693.03;10498320;28;20063;-59
2021/09/22 12:37:18;;;;;;;13.45;7.68;;;;;;;27.04;36.27;102695.38;10498651;28;20045;-58
2021/09/22 12:42:21;;;;;;;7.72;5.78;;;;;;;26.63;39.77;102685.00;10498217;28;20404;-58
2021/09/22 12:47:25;;;;;;;9.10;5.88;;;;;;;25.80;38.95;102674.00;10497450;28;20400;-59
2021/09/22 12:52:28;;;;;;;8.05;5.82;;;;;;;28.35;37.22;102668.75;10498072;28;20056;-58
2021/09/22 12:57:43;;;;;;;11.50;6.65;;;;;;;26.42;38.34;102658.34;10497199;28;20044;-58
2021/09/22 13:02:45;;;;;;;6.78;6.07;;;;;;;27.13;36.98;102656.00;10497517;28;20055;-59
2021/09/22 13:07:58;;;;;;;9.93;6.25;;;;;;;26.38;39.43;102635.47;10496451;28;20546;-59
2021/09/22 13:13:14;;;;;;;6.45;5.45;;;;;;;27.17;38.90;102646.63;10497814;28;20048;-58
2021/09/22 13:18:21;;;;;;;5.15;4.65;;;;;;;26.17;38.36;102651.78;10497740;28;20052;-59
2021/09/22 13:23:24;;;;;;;10.25;5.20;;;;;;;26.56;41.17;102632.81;10497496;28;20508;-59
2021/09/22 13:28:27;;;;;;;6.25;5.28;;;;;;;26.19;37.85;102632.84;10495638;28;20083;-58
2021/09/22 13:33:29;;;;;;;6.82;4.20;;;;;;;28.42;41.04;102618.59;10497145;28;20048;-58
2021/09/22 13:38:32;;;;;;;7.72;6.07;;;;;;;26.51;38.87;102627.91;10497145;28;20080;-58
2021/09/22 13:43:35;;;;;;;8.40;6.78;;;;;;;26.60;38.15;102620.78;10497355;28;20045;-58
2021/09/22 13:48:37;;;;;;;7.50;5.20;;;;;;;26.05;39.65;102620.75;10496669;28;20405;-58
2021/09/22 13:53:40;;;;;;;6.15;4.60;;;;;;;26.78;37.53;102609.25;10497394;28;20047;-58
2021/09/22 13:58:42;;;;;;;8.43;5.32;;;;;;;25.39;43.11;102599.09;10496553;28;20056;-58
2021/09/22 14:03:45;;;;;;;9.27;6.13;;;;;;;26.47;36.24;102582.69;10496747;28;20511;-59
2021/09/22 14:08:47;;;;;;;10.15;6.55;;;;;;;27.62;37.31;102591.88;10499805;28;20048;-58
2021/09/22 14:13:50;;;;;;;7.30;6.68;;;;;;;26.14;36.27;102593.88;10503695;28;20493;-58
2021/09/22 14:18:52;;;;;;;7.95;5.57;;;;;;;27.66;37.60;102577.13;10502366;28;20048;-58
2021/09/22 14:23:54;;;;;;;10.30;6.85;;;;;;;26.44;39.50;102578.47;10503506;28;20044;-58
2021/09/22 14:28:57;;;;;;;7.68;6.93;;;;;;;26.50;39.87;102563.59;10503050;28;20062;-58
2021/09/22 14:33:59;;;;;;;11.10;8.57;;;;;;;28.12;37.18;102547.28;10503098;28;20048;-58
2021/09/22 14:39:02;;;;;;;8.38;6.95;;;;;;;25.27;39.23;102552.00;10503196;28;20055;-57
2021/09/22 14:44:05;;;;;;;8.52;7.32;;;;;;;26.60;37.83;102544.75;10501585;28;20044;-58
2021/09/22 14:49:07;;;;;;;9.27;6.75;;;;;;;26.87;38.28;102536.66;10502582;28;20057;-58
2021/09/22 14:54:10;;;;;;;7.25;6.38;;;;;;;27.29;35.38;102540.56;10502430;28;20395;-59
2021/09/22 14:59:12;;;;;;;5.88;5.30;;;;;;;26.79;43.18;102533.03;10501910;28;20481;-58
2021/09/22 15:04:14;;;;;;;6.60;5.93;;;;;;;28.83;34.47;102523.56;10502069;28;20131;-58
2021/09/22 15:09:17;;;;;;;6.88;5.65;;;;;;;28.62;36.06;102518.69;10501595;28;20052;-59
2021/09/22 15:14:20;;;;;;;9.02;5.90;;;;;;;24.16;42.87;102512.88;10501406;28;20537;-58
2021/09/22 15:19:23;;;;;;;10.57;5.65;;;;;;;27.25;37.07;102499.66;10500575;28;20056;-58
2021/09/22 15:24:25;;;;;;;8.23;5.88;;;;;;;25.61;39.15;102491.69;10501198;28;20136;-59
2021/09/22 15:29:28;;;;;;;7.93;5.00;;;;;;;23.66;44.71;102494.94;10500501;28;20056;-58
2021/09/22 15:34:30;;;;;;;6.85;4.88;;;;;;;22.25;51.52;102495.00;10500714;28;20083;-58
2021/09/22 15:39:32;;;;;;;8.88;4.50;;;;;;;21.18;54.15;102497.06;10500382;28;20051;-58
2021/09/22 15:44:35;;;;;;;9.70;5.43;;;;;;;20.75;56.82;102490.47;10500285;28;20045;-58
2021/09/22 15:49:38;;;;;;;4.85;4.15;;;;;;;20.21;58.61;102482.88;10499578;28;20051;-58
2021/09/22 15:54:41;;;;;;;10.75;7.43;;;;;;;21.47;48.02;102464.72;10500064;28;20040;-57
2021/09/22 15:59:43;;;;;;;6.30;5.70;;;;;;;20.73;54.45;102463.13;10499587;28;20052;-58
2021/09/22 16:04:46;;;;;;;6.38;3.97;;;;;;;19.11;66.78;102468.31;10499878;28;20128;-58
2021/09/22 16:09:48;;;;;;;6.97;4.60;;;;;;;18.82;66.51;102463.09;10499300;28;20048;-57
2021/09/22 16:14:51;;;;;;;7.68;5.70;;;;;;;18.65;66.09;102466.88;10499376;28;20045;-58
2021/09/22 16:19:53;;;;;;;6.07;4.78;;;;;;;18.56;69.56;102463.03;10499138;28;20063;-58
2021/09/22 16:24:55;;;;;;;6.60;4.60;;;;;;;18.13;71.87;102467.56;10498558;28;20389;-58
2021/09/22 16:29:58;;;;;;;6.32;5.25;;;;;;;17.56;75.53;102468.38;10498887;28;20052;-58
2021/09/22 16:35:00;;;;;;;9.65;4.97;;;;;;;17.20;79.05;102464.38;10497385;28;20131;-57
2021/09/22 16:40:07;;;;;;;9.13;5.47;;;;;;;17.01;79.81;102468.09;10498615;28;20144;-58
2021/09/22 16:45:19;;;;;;;11.20;5.45;;;;;;;16.70;81.51;102475.09;10497359;28;20098;-59
2021/09/22 16:50:22;;;;;;;8.38;4.30;;;;;;;16.20;87.39;102470.81;10498423;28;20427;-58
2021/09/22 16:55:25;;;;;;;4.20;3.75;;;;;;;16.48;86.72;102469.31;10498121;28;20045;-58
2021/09/22 17:00:27;;;;;;;6.00;3.75;;;;;;;16.33;86.09;102471.03;10497425;28;20393;-58
2021/09/22 17:05:30;;;;;;;5.65;3.80;;;;;;;15.91;90.11;102461.84;10498143;28;20045;-58
2021/09/22 17:10:36;;;;;;;5.43;4.60;;;;;;;15.93;88.38;102465.25;10498009;28;20153;-58
2021/09/22 17:15:38;;;;;;;6.70;3.95;;;;;;;15.67;89.26;102464.81;10497997;28;20536;-58
2021/09/22 17:20:41;;;;;;;10.65;4.70;;;;;;;15.38;91.88;102466.31;10497425;28;20060;-58
2021/09/22 17:25:47;;;;;;;6.65;4.05;;;;;;;15.33;91.09;102471.84;10497961;28;20055;-58
2021/09/22 17:30:49;;;;;;;9.73;5.30;;;;;;;15.25;89.93;102463.47;10497846;28;20079;-58
2021/09/22 17:35:52;;;;;;;9.27;5.13;;;;;;;14.93;92.10;102465.06;10498287;28;20052;-57
2021/09/22 17:40:55;;;;;;;10.85;5.32;;;;;;;14.79;93.25;102461.34;10496860;28;20049;-58
2021/09/22 17:45:59;;;;;;;6.47;5.38;;;;;;;14.75;91.85;102443.94;10503860;28;20045;-57
2021/09/22 17:51:01;;;;;;;7.55;5.95;;;;;;;14.70;91.04;102443.31;10504624;28;20072;-58
2021/09/22 17:56:03;;;;;;;15.02;8.05;;;;;;;14.45;93.61;102444.47;10504495;28;20060;-56
2021/09/22 18:01:06;;;;;;;14.40;6.65;;;;;;;14.46;93.16;102442.69;10504117;28;20407;-58
2021/09/22 18:06:09;;;;;;;10.27;7.20;;;;;;;14.17;95.51;102441.41;10503055;28;20109;-57
2021/09/22 18:11:12;;;;;;;11.55;8.43;;;;;;;13.87;95.84;102442.75;10504127;28;20401;-57
2021/09/22 18:16:17;;;;;;;18.02;8.60;;;;;;;13.81;96.16;102440.41;10503894;28;20148;-57
2021/09/22 18:21:19;;;;;;;12.93;9.82;;;;;;;13.58;98.66;102454.56;10503589;28;20048;-58
2021/09/22 18:26:22;;;;;;;14.00;9.30;;;;;;;13.60;96.54;102444.84;10503573;28;20054;-57
2021/09/22 18:31:28;;;;;;;13.32;9.98;;;;;;;13.42;97.05;102450.91;10503856;28;20052;-57
2021/09/22 18:36:31;;;;;;;13.65;8.35;;;;;;;13.53;96.97;102451.28;10503519;28;20076;-57
2021/09/22 18:41:33;;;;;;;14.40;10.98;;;;;;;13.20;100.00;102451.78;10503064;28;20048;-58
2021/09/22 18:46:36;;;;;;;10.38;9.23;;;;;;;13.29;99.04;102440.88;10502725;28;20056;-57
2021/09/22 18:51:40;;;;;;;19.33;10.70;;;;;;;13.29;98.73;102437.38;10502989;28;20044;-58
2021/09/22 18:56:43;;;;;;;27.20;11.93;;;;;;;13.21;99.55;102427.19;10501059;28;20056;-57
2021/09/22 19:01:46;;;;;;;14.15;10.68;;;;;;;12.96;100.00;102438.75;10501992;28;20133;-58
2021/09/22 19:06:49;;;;;;;20.02;11.23;;;;;;;13.05;100.00;102429.63;10501765;28;20076;-57
2021/09/22 19:11:53;;;;;;;18.27;13.07;;;;;;;13.15;97.29;102424.84;10501631;28;20583;-58
2021/09/22 19:16:56;;;;;;;17.83;12.15;;;;;;;13.14;99.19;102421.31;10501353;28;20424;-58
2021/09/22 19:22:01;;;;;;;20.60;13.07;;;;;;;13.10;97.90;102418.91;10501078;28;20460;-59
2021/09/22 19:27:03;;;;;;;21.00;14.25;;;;;;;12.92;99.85;102415.28;10501336;28;20135;-58
2021/09/22 19:32:06;;;;;;;20.20;13.55;;;;;;;12.88;100.00;102405.78;10500724;28;20076;-57
2021/09/22 19:37:08;;;;;;;20.88;14.02;;;;;;;12.88;100.00;102396.16;10500411;28;20040;-58
2021/09/22 19:42:11;;;;;;;21.42;14.75;;;;;;;12.54;100.00;102405.41;10500344;28;20048;-57
2021/09/22 19:47:13;;;;;;;19.90;14.23;;;;;;;12.67;100.00;102408.38;10499933;28;20503;-57
2021/09/22 19:52:16;;;;;;;22.17;14.55;;;;;;;12.50;100.00;102401.19;10499905;28;20051;-57
2021/09/22 19:57:19;;;;;;;21.58;14.82;;;;;;;12.49;100.00;102415.25;10499713;28;20051;-59
2021/09/22 20:02:22;;;;;;;18.30;13.57;;;;;;;12.51;100.00;102402.91;10499712;28;20132;-58
2021/09/22 20:07:25;;;;;;;20.65;14.05;;;;;;;12.35;100.00;102402.63;10499133;28;20124;-58
2021/09/22 20:12:29;;;;;;;19.70;14.45;;;;;;;12.76;99.52;102399.25;10499617;28;20055;-58
2021/09/22 20:17:32;;;;;;;19.67;13.57;;;;;;;12.44;100.00;102399.66;10498832;28;20381;-59
2021/09/22 20:22:35;;;;;;;22.80;15.00;;;;;;;12.44;100.00;102401.44;10499284;28;20138;-59
2021/09/22 20:27:41;;;;;;;20.45;13.73;;;;;;;12.51;100.00;102386.25;10498820;28;20052;-58
2021/09/22 20:32:45;;;;;;;19.25;13.88;;;;;;;12.50;100.00;102400.34;10498577;28;20060;-58
2021/09/22 20:37:47;;;;;;;19.02;13.65;;;;;;;12.19;100.00;102381.38;10499212;28;20045;-57
2021/09/22 20:42:50;;;;;;;19.75;13.80;;;;;;;12.45;100.00;102376.88;10498303;28;20127;-59
2021/09/22 20:47:52;;;;;;;23.02;15.80;;;;;;;12.28;100.00;102380.16;10497974;28;20048;-57
2021/09/22 20:52:55;;;;;;;18.63;13.27;;;;;;;12.25;100.00;102357.53;10498017;28;20489;-58
2021/09/22 20:57:57;;;;;;;18.42;13.43;;;;;;;12.18;100.00;102361.28;10497758;28;20127;-58
2021/09/22 21:03:00;;;;;;;21.38;13.95;;;;;;;12.17;100.00;102353.47;10497936;28;20048;-58
2021/09/22 21:08:03;;;;;;;19.15;13.60;;;;;;;12.22;100.00;102348.88;10497706;28;20404;-58
2021/09/22 21:13:06;;;;;;;16.52;12.77;;;;;;;12.14;100.00;102348.34;10497550;28;20481;-58
2021/09/22 21:18:08;;;;;;;17.20;13.32;;;;;;;12.10;100.00;102338.88;10500589;28;20045;-59
2021/09/22 21:23:11;;;;;;;18.70;13.40;;;;;;;11.79;100.00;102338.25;10506054;28;20048;-58
2021/09/22 21:28:15;;;;;;;19.00;12.50;;;;;;;12.11;100.00;102328.31;10506098;28;20052;-58
2021/09/22 21:33:17;;;;;;;19.17;13.57;;;;;;;11.85;100.00;102318.78;10505792;28;20052;-59
2021/09/22 21:38:20;;;;;;;17.77;12.85;;;;;;;11.89;100.00;102323.03;10505455;28;20052;-58
2021/09/22 21:43:23;;;;;;;17.55;13.10;;;;;;;11.59;100.00;102314.56;10505214;28;20052;-58
2021/09/22 21:48:25;;;;;;;19.73;13.90;;;;;;;11.80;100.00;102308.50;10505038;28;20424;-58
2021/09/22 21:53:27;;;;;;;19.05;15.13;;;;;;;11.99;100.00;102318.31;10504612;28;20048;-58
2021/09/22 21:58:30;;;;;;;21.63;16.85;;;;;;;11.72;100.00;102305.31;10504605;28;20120;-59
2021/09/22 22:03:32;;;;;;;20.92;14.48;;;;;;;11.79;100.00;102309.41;10503859;28;20479;-58
2021/09/22 22:08:41;;;;;;;21.70;15.13;;;;;;;11.95;100.00;102293.09;10503864;28;20079;-59
2021/09/22 22:13:43;;;;;;;20.00;14.38;;;;;;;11.93;100.00;102298.38;10504158;28;20044;-58
2021/09/22 22:18:46;;;;;;;20.20;15.95;;;;;;;12.00;99.37;102312.13;10503632;28;20124;-59
2021/09/22 22:23:48;;;;;;;20.27;15.18;;;;;;;11.76;100.00;102313.91;10504086;28;20057;-57
2021/09/22 22:28:52;;;;;;;17.65;13.40;;;;;;;11.82;100.00;102306.66;10504058;28;20127;-58
2021/09/22 22:33:54;;;;;;;18.58;14.05;;;;;;;11.58;100.00;102295.31;10502984;28;20128;-58
2021/09/22 22:38:56;;;;;;;15.80;13.75;;;;;;;11.77;98.85;102284.13;10503106;28;20051;-58
2021/09/22 22:43:58;;;;;;;18.45;15.43;;;;;;;11.94;98.54;102271.25;10502947;28;20052;-58